Time;durP1;ratioP1;P1;durP2;ratioP2;P2;SDS_P1;SDS_P2;PMS_P1;PMS_P2;Temp;Humidity;BMP_temperature;BMP_pressure;BME280_temperature;BME280_humidity;BME280_pressure;Samples;Min_cycle;Max_cycle;Signal;HPM_P1;HPM_P2
2022/07/08 00:00:55;;;;;;;1.38;0.75;;;8.30;99.90;;;;;;5072457;28;20441;-84
2022/07/08 00:03:23;;;;;;;0.93;0.50;;;8.30;99.90;;;;;;5071671;28;20383;-81
2022/07/08 00:05:50;;;;;;;1.63;0.80;;;8.40;99.90;;;;;;5071546;28;20437;-79
2022/07/08 00:08:19;;;;;;;6.00;0.80;;;8.40;99.90;;;;;;5071511;28;20116;-79
2022/07/08 00:10:46;;;;;;;1.35;0.55;;;8.50;99.90;;;;;;5071920;28;20082;-80
2022/07/08 00:13:14;;;;;;;2.50;0.63;;;8.50;99.90;;;;;;5071454;28;20071;-81
2022/07/08 00:15:41;;;;;;;0.98;0.50;;;8.50;99.90;;;;;;5072122;28;20033;-80
2022/07/08 00:18:08;;;;;;;0.60;0.40;;;8.60;99.90;;;;;;5072579;28;20108;-80
2022/07/08 00:20:36;;;;;;;0.68;0.60;;;8.70;99.90;;;;;;5072160;28;20028;-80
2022/07/08 00:23:03;;;;;;;1.38;0.40;;;8.70;99.90;;;;;;5073673;28;20035;-81
2022/07/08 00:25:30;;;;;;;0.40;0.40;;;8.80;99.90;;;;;;5076173;28;20025;-78
2022/07/08 00:27:58;;;;;;;1.05;0.50;;;8.80;99.90;;;;;;5076037;28;20025;-81
2022/07/08 00:30:25;;;;;;;0.40;0.40;;;8.80;99.90;;;;;;5075924;28;20020;-80
2022/07/08 00:32:52;;;;;;;0.90;0.50;;;8.90;99.90;;;;;;5075537;28;20028;-82
2022/07/08 00:35:19;;;;;;;1.55;0.70;;;8.90;99.90;;;;;;5075784;28;20028;-82
2022/07/08 00:37:47;;;;;;;0.77;0.57;;;9.00;99.90;;;;;;5075892;28;20048;-82
2022/07/08 00:40:14;;;;;;;1.52;0.65;;;9.00;99.90;;;;;;5075563;28;20028;-81
2022/07/08 00:42:41;;;;;;;1.27;0.50;;;9.00;99.90;;;;;;5075766;28;20099;-82
2022/07/08 00:45:09;;;;;;;1.35;0.60;;;9.10;99.90;;;;;;5074785;28;20033;-80
2022/07/08 00:47:36;;;;;;;3.92;0.82;;;9.10;99.90;;;;;;5075690;28;20482;-81
2022/07/08 00:50:04;;;;;;;0.68;0.60;;;9.20;99.90;;;;;;5074697;28;20055;-82
2022/07/08 00:52:32;;;;;;;0.90;0.50;;;9.30;99.90;;;;;;5061302;28;20449;-72
2022/07/08 00:55:00;;;;;;;0.93;0.75;;;9.40;99.90;;;;;;5056154;28;20491;-81
2022/07/08 00:57:28;;;;;;;1.15;0.80;;;9.40;99.90;;;;;;5060240;28;20033;-81
2022/07/08 00:59:56;;;;;;;4.38;1.23;;;9.40;99.90;;;;;;5056195;28;20028;-81
2022/07/08 01:02:23;;;;;;;2.05;1.08;;;9.40;99.90;;;;;;5055208;28;20037;-80
2022/07/08 01:04:51;;;;;;;1.17;0.65;;;9.50;99.90;;;;;;5086101;28;20021;-81
2022/07/08 01:07:19;;;;;;;3.15;0.50;;;9.60;99.90;;;;;;5095554;28;20020;-83
2022/07/08 01:09:46;;;;;;;1.55;0.70;;;9.60;99.90;;;;;;5095311;28;20024;-83
2022/07/08 01:12:14;;;;;;;3.00;0.63;;;9.60;99.90;;;;;;5095339;28;20016;-81
2022/07/08 01:14:41;;;;;;;1.48;0.55;;;9.70;99.90;;;;;;5077967;28;20038;-81
2022/07/08 01:17:09;;;;;;;2.22;0.80;;;9.70;99.90;;;;;;5090475;28;20028;-79
2022/07/08 01:19:36;;;;;;;2.88;0.60;;;9.80;99.90;;;;;;5071477;28;20078;-78
2022/07/08 01:22:03;;;;;;;1.88;0.60;;;9.80;99.90;;;;;;5074098;28;20076;-81
2022/07/08 01:24:31;;;;;;;1.63;0.75;;;9.90;99.90;;;;;;5071136;28;20023;-80
2022/07/08 01:26:58;;;;;;;1.98;0.70;;;10.00;99.90;;;;;;5074310;28;20027;-80
2022/07/08 01:29:25;;;;;;;2.97;1.00;;;10.10;99.90;;;;;;5074370;28;20036;-81
2022/07/08 01:32:01;;;;;;;4.53;0.95;;;10.10;99.90;;;;;;5073885;28;20095;-80
2022/07/08 01:34:29;;;;;;;3.58;0.68;;;10.20;99.90;;;;;;5073326;28;20131;-80
2022/07/08 01:36:56;;;;;;;3.05;0.85;;;10.20;99.90;;;;;;5071642;28;20471;-81
2022/07/08 01:39:24;;;;;;;1.05;0.63;;;10.30;99.90;;;;;;5074250;28;20028;-80
2022/07/08 01:41:52;;;;;;;3.88;1.02;;;10.30;99.90;;;;;;5073883;28;20470;-81
2022/07/08 01:44:20;;;;;;;2.05;0.63;;;10.40;99.90;;;;;;5074094;28;20028;-81
2022/07/08 01:46:47;;;;;;;1.70;0.80;;;10.50;99.90;;;;;;5074206;28;20020;-80
2022/07/08 01:49:15;;;;;;;1.58;0.68;;;10.50;99.90;;;;;;5074453;28;20028;-81
2022/07/08 01:51:43;;;;;;;2.05;0.70;;;10.60;99.90;;;;;;5074197;28;20021;-81
2022/07/08 01:54:10;;;;;;;2.15;0.70;;;10.60;99.90;;;;;;5074215;28;20060;-78
2022/07/08 01:56:41;;;;;;;2.15;1.02;;;10.70;99.90;;;;;;5074049;28;20055;-80
2022/07/08 01:59:09;;;;;;;3.58;0.50;;;10.70;99.90;;;;;;5074522;28;20035;-81
2022/07/08 02:01:36;;;;;;;0.50;0.40;;;10.80;99.90;;;;;;5073320;28;20049;-81
2022/07/08 02:04:04;;;;;;;1.92;0.77;;;10.90;99.90;;;;;;5073972;28;20021;-81
2022/07/08 02:06:32;;;;;;;4.53;0.90;;;10.90;99.90;;;;;;5073912;28;20025;-76
2022/07/08 02:09:00;;;;;;;0.82;0.50;;;11.00;99.90;;;;;;5071364;28;20017;-81
2022/07/08 02:14:13;;;;;;;0.63;0.40;;;11.10;99.90;;;;;;5057157;28;20062;-81
2022/07/08 02:16:41;;;;;;;0.50;0.50;;;11.20;99.90;;;;;;5071743;28;20020;-80
2022/07/08 02:19:08;;;;;;;2.15;0.50;;;11.20;99.90;;;;;;5073052;28;20024;-77
2022/07/08 02:21:36;;;;;;;0.57;0.57;;;11.30;99.90;;;;;;5070715;28;20024;-79
2022/07/08 02:24:04;;;;;;;0.90;0.45;;;11.40;99.90;;;;;;5073004;28;20021;-80
2022/07/08 02:26:32;;;;;;;1.17;0.40;;;11.40;99.90;;;;;;5073687;28;20024;-79
2022/07/08 02:28:59;;;;;;;0.95;0.40;;;11.40;99.90;;;;;;5073389;28;20096;-70
2022/07/08 02:31:27;;;;;;;0.82;0.47;;;11.40;99.90;;;;;;5073354;28;20086;-80
2022/07/08 02:33:55;;;;;;;1.27;0.60;;;11.40;99.90;;;;;;5073118;28;20111;-79
2022/07/08 02:36:22;;;;;;;1.30;0.60;;;11.40;99.90;;;;;;5073305;28;20025;-80
2022/07/08 02:38:50;;;;;;;0.70;0.35;;;11.50;99.90;;;;;;5073668;28;20035;-80
2022/07/08 02:41:18;;;;;;;0.63;0.47;;;11.60;99.90;;;;;;5073422;28;20416;-79
2022/07/08 02:43:46;;;;;;;0.65;0.38;;;11.70;99.90;;;;;;5073164;28;20021;-81
2022/07/08 02:46:13;;;;;;;2.00;0.30;;;11.70;99.90;;;;;;5060550;28;20475;-80
2022/07/08 02:48:41;;;;;;;0.85;0.40;;;11.80;99.90;;;;;;5053455;28;20052;-80
2022/07/08 02:51:09;;;;;;;1.75;0.63;;;11.80;99.90;;;;;;5035187;28;20396;-70
2022/07/08 02:53:36;;;;;;;0.30;0.30;;;11.90;99.90;;;;;;5052770;28;20529;-81
2022/07/08 02:56:04;;;;;;;1.23;0.40;;;11.90;99.90;;;;;;5053164;28;20368;-80
2022/07/08 02:58:32;;;;;;;0.52;0.40;;;11.90;99.90;;;;;;5051822;28;20061;-79
2022/07/08 03:00:59;;;;;;;0.60;0.40;;;11.90;99.90;;;;;;5052896;28;20053;-77
2022/07/08 03:03:27;;;;;;;1.15;0.50;;;12.00;99.90;;;;;;5051334;28;20032;-78
2022/07/08 03:05:55;;;;;;;2.47;0.40;;;12.00;99.90;;;;;;5051239;28;20387;-72
2022/07/08 03:08:22;;;;;;;0.85;0.40;;;12.00;99.90;;;;;;5050960;28;20021;-75
2022/07/08 03:10:50;;;;;;;1.10;0.30;;;12.00;99.90;;;;;;5051147;28;20017;-76
2022/07/08 03:13:18;;;;;;;0.93;0.60;;;12.00;99.90;;;;;;5050320;28;20483;-78
2022/07/08 03:15:45;;;;;;;1.10;0.55;;;12.00;99.90;;;;;;5050861;28;20021;-76
2022/07/08 03:18:13;;;;;;;3.47;0.47;;;12.00;99.90;;;;;;5050860;28;20021;-76
2022/07/08 03:20:41;;;;;;;0.75;0.38;;;12.00;99.90;;;;;;5052916;28;20044;-75
2022/07/08 03:23:09;;;;;;;0.40;0.30;;;12.00;99.90;;;;;;5052691;28;20029;-75
2022/07/08 03:25:36;;;;;;;0.85;0.40;;;12.00;99.90;;;;;;5053227;28;20033;-80
2022/07/08 03:28:04;;;;;;;1.48;0.30;;;12.00;99.90;;;;;;5055652;28;20111;-80
2022/07/08 03:30:32;;;;;;;2.42;0.30;;;12.00;99.90;;;;;;5072454;28;20099;-79
2022/07/08 03:33:00;;;;;;;1.40;0.40;;;12.00;99.90;;;;;;5072417;28;20025;-79
2022/07/08 03:35:28;;;;;;;0.80;0.38;;;12.00;99.90;;;;;;5072381;28;20529;-80
2022/07/08 03:37:55;;;;;;;0.40;0.30;;;12.00;99.90;;;;;;5071702;28;20025;-80
2022/07/08 03:43:08;;;;;;;0.30;0.30;;;12.00;99.90;;;;;;5073187;28;20082;-75
2022/07/08 03:45:36;;;;;;;0.90;0.20;;;12.00;99.90;;;;;;5072532;28;20424;-71
2022/07/08 03:48:04;;;;;;;1.10;0.47;;;12.00;99.90;;;;;;5073081;28;20024;-80
2022/07/08 03:50:32;;;;;;;0.30;0.30;;;12.00;99.90;;;;;;5076037;28;20022;-72
2022/07/08 03:53:00;;;;;;;0.28;0.28;;;12.00;99.90;;;;;;5082212;28;20116;-78
2022/07/08 03:55:27;;;;;;;0.20;0.20;;;12.00;99.90;;;;;;5072723;28;20047;-81
2022/07/08 03:57:56;;;;;;;0.73;0.30;;;12.00;99.90;;;;;;5074055;28;20540;-80
2022/07/08 04:00:25;;;;;;;0.70;0.30;;;12.00;99.90;;;;;;5076216;28;20059;-80
2022/07/08 04:02:53;;;;;;;1.33;0.20;;;12.00;99.90;;;;;;5076389;28;20100;-80
2022/07/08 04:05:20;;;;;;;0.68;0.40;;;12.00;99.90;;;;;;5076505;28;20028;-81
2022/07/08 04:07:48;;;;;;;0.30;0.30;;;12.00;99.90;;;;;;5075403;28;20039;-81
2022/07/08 04:10:16;;;;;;;0.30;0.30;;;12.00;99.90;;;;;;5075800;28;20119;-70
2022/07/08 04:12:43;;;;;;;0.70;0.50;;;12.00;99.90;;;;;;5075250;28;20440;-83
2022/07/08 04:15:12;;;;;;;0.40;0.40;;;11.90;99.90;;;;;;5075848;28;20048;-83
2022/07/08 04:17:40;;;;;;;0.20;0.20;;;11.90;99.90;;;;;;5075632;28;20017;-82
2022/07/08 04:20:08;;;;;;;0.22;0.22;;;11.90;99.90;;;;;;5075228;28;20090;-83
2022/07/08 04:22:36;;;;;;;0.25;0.25;;;11.90;99.90;;;;;;5074883;28;20029;-80
2022/07/08 04:25:04;;;;;;;0.93;0.22;;;11.90;99.90;;;;;;5075555;28;20095;-83
2022/07/08 04:27:32;;;;;;;0.40;0.40;;;11.90;99.90;;;;;;5057221;28;20103;-82
2022/07/08 04:29:59;;;;;;;0.80;0.20;;;11.90;99.90;;;;;;5075538;28;20028;-81
2022/07/08 04:32:27;;;;;;;0.77;0.35;;;11.90;99.90;;;;;;5075401;28;20028;-82
2022/07/08 04:34:58;;;;;;;0.70;0.30;;;11.90;99.90;;;;;;5076108;28;20025;-83
2022/07/08 04:37:26;;;;;;;0.68;0.30;;;11.90;99.90;;;;;;5076013;28;20012;-83
2022/07/08 04:39:54;;;;;;;0.40;0.28;;;11.90;99.90;;;;;;5075982;28;20039;-83
2022/07/08 04:42:23;;;;;;;0.85;0.50;;;11.80;99.90;;;;;;5075844;28;20028;-80
2022/07/08 04:44:50;;;;;;;0.25;0.20;;;11.80;99.90;;;;;;5075966;28;20029;-83
2022/07/08 04:47:18;;;;;;;0.30;0.30;;;11.80;99.90;;;;;;5075858;28;20027;-82
2022/07/08 04:49:46;;;;;;;0.80;0.43;;;11.80;99.90;;;;;;5075931;28;20054;-83
2022/07/08 04:52:13;;;;;;;0.55;0.30;;;11.80;99.90;;;;;;5075544;28;20024;-82
2022/07/08 04:54:41;;;;;;;0.20;0.20;;;11.80;99.90;;;;;;5075881;28;20482;-83
2022/07/08 04:57:09;;;;;;;0.60;0.35;;;11.80;99.90;;;;;;5075714;28;20107;-83
2022/07/08 04:59:37;;;;;;;0.40;0.30;;;11.70;99.90;;;;;;5075632;28;20099;-83
2022/07/08 05:02:05;;;;;;;0.20;0.20;;;11.70;99.90;;;;;;5075645;28;20089;-83
2022/07/08 05:04:32;;;;;;;0.30;0.20;;;11.80;99.90;;;;;;5057736;28;20409;-82
2022/07/08 05:07:00;;;;;;;0.30;0.30;;;11.80;99.90;;;;;;5075409;28;20025;-81
2022/07/08 05:09:28;;;;;;;0.35;0.30;;;11.80;99.90;;;;;;5073694;28;20032;-82
2022/07/08 05:11:56;;;;;;;0.82;0.35;;;11.70;99.90;;;;;;5074853;28;20486;-81
2022/07/08 05:14:23;;;;;;;0.65;0.50;;;11.70;99.90;;;;;;5074612;28;20121;-76
2022/07/08 05:16:51;;;;;;;0.50;0.40;;;11.70;99.90;;;;;;5074688;28;20082;-80
2022/07/08 05:19:19;;;;;;;0.60;0.50;;;11.60;99.90;;;;;;5057059;28;20036;-76
2022/07/08 05:21:46;;;;;;;0.40;0.32;;;11.60;99.90;;;;;;5074789;28;20374;-82
2022/07/08 05:24:14;;;;;;;0.30;0.30;;;11.60;99.90;;;;;;5074453;28;20016;-82
2022/07/08 05:26:42;;;;;;;2.15;0.30;;;11.60;99.90;;;;;;5074629;28;20025;-82
2022/07/08 05:29:10;;;;;;;0.20;0.20;;;11.50;99.90;;;;;;5074514;28;20021;-82
2022/07/08 05:31:38;;;;;;;0.55;0.40;;;11.50;99.90;;;;;;5074511;28;20458;-81
2022/07/08 05:34:05;;;;;;;1.42;0.40;;;11.50;99.90;;;;;;5074398;28;20024;-82
2022/07/08 05:36:33;;;;;;;0.80;0.50;;;11.50;99.90;;;;;;5074472;28;20024;-83
2022/07/08 05:39:01;;;;;;;0.30;0.30;;;11.40;99.90;;;;;;5074386;28;20469;-83
2022/07/08 05:41:29;;;;;;;0.30;0.30;;;11.50;99.90;;;;;;5074172;28;20056;-83
2022/07/08 05:43:57;;;;;;;0.82;0.30;;;11.40;99.90;;;;;;5074710;28;20063;-81
2022/07/08 05:46:24;;;;;;;0.52;0.40;;;11.40;99.90;;;;;;5074269;28;20025;-77
2022/07/08 05:48:52;;;;;;;1.08;0.40;;;11.40;99.90;;;;;;5074121;28;20074;-75
2022/07/08 05:51:20;;;;;;;0.30;0.30;;;11.30;99.90;;;;;;5074507;28;20056;-71
2022/07/08 05:53:48;;;;;;;0.40;0.40;;;11.30;99.90;;;;;;5074625;28;20394;-71
2022/07/08 05:56:16;;;;;;;1.10;0.40;;;11.30;99.90;;;;;;5072730;28;20059;-69
2022/07/08 05:58:43;;;;;;;0.43;0.30;;;11.30;99.90;;;;;;5073327;28;20036;-74
2022/07/08 06:01:11;;;;;;;0.57;0.35;;;11.20;99.90;;;;;;5073848;28;20044;-75
2022/07/08 06:03:39;;;;;;;0.43;0.40;;;11.20;99.90;;;;;;5073801;28;20103;-79
2022/07/08 06:06:07;;;;;;;0.57;0.40;;;11.10;99.90;;;;;;5073336;28;20470;-74
2022/07/08 06:08:34;;;;;;;0.95;0.55;;;11.10;99.90;;;;;;5070853;28;20475;-80
2022/07/08 06:11:02;;;;;;;0.55;0.40;;;11.10;99.90;;;;;;5073775;28;20020;-81
2022/07/08 06:13:30;;;;;;;0.98;0.57;;;11.00;99.90;;;;;;5073176;28;20482;-79
2022/07/08 06:15:58;;;;;;;0.30;0.30;;;11.00;99.90;;;;;;5071280;28;20028;-78
2022/07/08 06:18:26;;;;;;;1.42;0.65;;;10.90;99.90;;;;;;5071648;28;20463;-75
2022/07/08 06:20:53;;;;;;;1.95;0.40;;;10.90;99.90;;;;;;5066569;28;20021;-79
2022/07/08 06:23:21;;;;;;;0.68;0.40;;;10.80;99.90;;;;;;5053715;28;20036;-75
2022/07/08 06:25:49;;;;;;;2.25;0.60;;;10.80;99.90;;;;;;5051260;28;20021;-77
2022/07/08 06:28:16;;;;;;;3.00;0.50;;;10.70;99.90;;;;;;5051726;28;20284;-77
2022/07/08 06:30:47;;;;;;;0.80;0.50;;;10.70;99.90;;;;;;5052733;28;20024;-81
2022/07/08 06:33:15;;;;;;;1.05;0.57;;;10.70;99.90;;;;;;5052742;28;20029;-81
2022/07/08 06:35:45;;;;;;;0.57;0.55;;;10.70;99.90;;;;;;5055510;28;20028;-79
2022/07/08 06:38:13;;;;;;;0.73;0.45;;;10.60;99.90;;;;;;5052824;28;20519;-80
2022/07/08 06:40:41;;;;;;;0.52;0.50;;;10.60;99.90;;;;;;5052039;28;20479;-80
2022/07/08 06:43:09;;;;;;;0.65;0.65;;;10.50;99.90;;;;;;5054394;28;20029;-77
2022/07/08 06:45:37;;;;;;;0.52;0.40;;;10.40;99.90;;;;;;5052454;28;20051;-81
2022/07/08 06:48:05;;;;;;;0.93;0.50;;;10.40;99.90;;;;;;5052597;28;20500;-80
2022/07/08 06:50:33;;;;;;;0.63;0.38;;;10.40;99.90;;;;;;5053116;28;20025;-72
2022/07/08 06:53:01;;;;;;;0.55;0.40;;;10.30;99.90;;;;;;5051864;28;20033;-80
2022/07/08 06:55:28;;;;;;;1.27;0.60;;;10.20;99.90;;;;;;5052112;28;20028;-79
2022/07/08 06:57:56;;;;;;;0.85;0.60;;;10.20;99.90;;;;;;5051926;28;20020;-80
2022/07/08 07:00:24;;;;;;;1.67;0.73;;;10.20;99.90;;;;;;5052171;28;20039;-80
2022/07/08 07:02:52;;;;;;;2.28;0.60;;;10.10;99.90;;;;;;5052025;28;20021;-80
2022/07/08 07:05:23;;;;;;;2.20;0.40;;;10.10;99.90;;;;;;5052055;28;20395;-78
2022/07/08 07:07:51;;;;;;;0.75;0.50;;;10.00;99.90;;;;;;5052004;28;20044;-81
2022/07/08 07:10:19;;;;;;;4.40;0.88;;;10.00;99.90;;;;;;5051792;28;20087;-80
2022/07/08 07:12:46;;;;;;;0.50;0.40;;;9.90;99.90;;;;;;5050288;28;20021;-78
2022/07/08 07:15:14;;;;;;;1.08;0.52;;;9.90;99.90;;;;;;5057359;28;20035;-81
2022/07/08 07:17:45;;;;;;;0.73;0.50;;;9.90;99.90;;;;;;5051704;28;20017;-82
2022/07/08 07:20:13;;;;;;;0.50;0.50;;;9.80;99.90;;;;;;5060014;28;20024;-82
2022/07/08 07:22:40;;;;;;;1.67;0.50;;;9.70;99.90;;;;;;5064453;28;20023;-82
2022/07/08 07:25:09;;;;;;;1.00;0.63;;;9.70;99.90;;;;;;5047888;28;20389;-81
2022/07/08 07:27:36;;;;;;;1.05;0.68;;;9.60;99.90;;;;;;5068565;28;20094;-82
2022/07/08 07:30:04;;;;;;;1.50;0.70;;;9.60;99.90;;;;;;5068651;28;20035;-77
2022/07/08 07:32:32;;;;;;;1.08;0.70;;;9.60;99.90;;;;;;5071373;28;20427;-82
2022/07/08 07:35:00;;;;;;;0.98;0.68;;;9.60;99.90;;;;;;5067470;28;20105;-71
2022/07/08 07:37:27;;;;;;;1.30;0.90;;;9.60;99.90;;;;;;5065249;28;20016;-81
2022/07/08 07:39:55;;;;;;;1.15;0.82;;;9.60;99.90;;;;;;5059840;28;20047;-69
2022/07/08 07:42:23;;;;;;;0.95;0.70;;;9.60;99.90;;;;;;5055863;28;20021;-78
2022/07/08 07:44:50;;;;;;;1.73;0.65;;;9.60;99.90;;;;;;5055716;28;20028;-79
2022/07/08 07:47:18;;;;;;;0.98;0.70;;;9.50;99.90;;;;;;5056355;28;20029;-81
2022/07/08 07:49:46;;;;;;;2.25;1.00;;;9.50;99.90;;;;;;5056852;28;20021;-81
2022/07/08 07:52:13;;;;;;;1.75;1.00;;;9.50;99.90;;;;;;5056345;28;20017;-73
2022/07/08 07:54:41;;;;;;;2.47;1.10;;;9.50;99.90;;;;;;5055834;28;20025;-80
2022/07/08 07:57:09;;;;;;;1.98;0.80;;;9.50;99.90;;;;;;5055885;28;20104;-76
2022/07/08 07:59:37;;;;;;;1.45;0.85;;;9.40;99.90;;;;;;5055936;28;20020;-82
2022/07/08 08:02:05;;;;;;;1.13;0.63;;;9.40;99.90;;;;;;5058228;28;20517;-81
2022/07/08 08:04:32;;;;;;;2.85;1.10;;;9.40;99.90;;;;;;5058267;28;20024;-81
2022/07/08 08:07:00;;;;;;;5.07;1.05;;;9.30;99.90;;;;;;5062559;28;20170;-81
2022/07/08 08:09:28;;;;;;;1.70;0.95;;;9.30;99.90;;;;;;5072225;28;20091;-82
2022/07/08 08:11:55;;;;;;;2.10;0.85;;;9.30;99.90;;;;;;5062864;28;20025;-81
2022/07/08 08:14:23;;;;;;;1.40;0.85;;;9.20;99.90;;;;;;5055941;28;20037;-81
2022/07/08 08:16:51;;;;;;;1.08;0.60;;;9.20;99.90;;;;;;5065570;28;20070;-81
2022/07/08 08:19:18;;;;;;;2.22;1.40;;;9.20;99.90;;;;;;5059644;28;20119;-77
2022/07/08 08:21:46;;;;;;;1.85;0.95;;;9.20;99.90;;;;;;5055742;28;20027;-79
2022/07/08 08:24:14;;;;;;;1.23;0.80;;;9.10;99.90;;;;;;5057209;28;20082;-70
2022/07/08 08:26:43;;;;;;;1.67;1.02;;;9.10;99.90;;;;;;5055894;28;20013;-79
2022/07/08 08:29:11;;;;;;;6.43;4.50;;;9.10;99.90;;;;;;5057233;28;20020;-82
2022/07/08 08:31:38;;;;;;;22.58;14.38;;;9.00;99.90;;;;;;5055422;28;21382;-82
2022/07/08 08:34:08;;;;;;;12.32;8.02;;;9.00;99.90;;;;;;5058127;28;20387;-83
2022/07/08 08:36:38;;;;;;;7.00;4.22;;;9.00;99.90;;;;;;5055263;28;20017;-82
2022/07/08 08:39:06;;;;;;;4.38;2.33;;;8.90;99.90;;;;;;5055001;28;20017;-82
2022/07/08 08:41:35;;;;;;;8.52;3.80;;;8.90;99.90;;;;;;5056890;28;20499;-83
2022/07/08 08:44:03;;;;;;;11.93;7.03;;;8.80;99.90;;;;;;5055070;28;20067;-82
2022/07/08 08:46:33;;;;;;;35.13;21.77;;;8.80;99.90;;;;;;5054996;28;20419;-82
2022/07/08 08:49:02;;;;;;;19.95;12.63;;;8.80;99.90;;;;;;5054616;28;20546;-81
2022/07/08 08:51:33;;;;;;;20.58;12.82;;;8.80;99.90;;;;;;5055274;28;20025;-81
2022/07/08 08:54:05;;;;;;;5.80;2.78;;;8.80;99.90;;;;;;5054477;28;20063;-81
2022/07/08 08:56:33;;;;;;;5.68;3.25;;;8.70;99.90;;;;;;5055159;28;20025;-80
2022/07/08 08:59:02;;;;;;;2.45;2.10;;;8.70;99.90;;;;;;5064592;28;20027;-81
2022/07/08 09:01:32;;;;;;;2.45;1.85;;;8.70;99.90;;;;;;5062789;28;20063;-69
2022/07/08 09:04:00;;;;;;;4.60;2.78;;;8.70;99.90;;;;;;5055863;28;20033;-79
2022/07/08 09:06:28;;;;;;;5.40;3.85;;;8.60;99.90;;;;;;5065074;28;20493;-68
2022/07/08 09:08:56;;;;;;;5.43;4.20;;;8.60;99.90;;;;;;5065320;28;20036;-79
2022/07/08 09:11:24;;;;;;;5.95;3.78;;;8.60;99.90;;;;;;5064519;28;20028;-79
2022/07/08 09:14:22;;;;;;;8.70;6.93;;;8.60;99.90;;;;;;5063038;28;20102;-80
2022/07/08 09:17:16;;;;;;;5.45;3.67;;;8.50;99.90;;;;;;5065882;28;20510;-76
2022/07/08 09:19:48;;;;;;;3.50;2.70;;;8.50;99.90;;;;;;5062450;28;20024;-79
2022/07/08 09:22:16;;;;;;;3.20;2.08;;;8.50;99.90;;;;;;5070901;28;20025;-80
2022/07/08 09:24:44;;;;;;;4.20;2.92;;;8.40;99.90;;;;;;5072608;28;20028;-79
2022/07/08 09:27:13;;;;;;;1.27;1.17;;;8.30;99.90;;;;;;5072339;28;20016;-81
2022/07/08 09:30:01;;;;;;;2.60;0.93;;;8.30;99.90;;;;;;5072221;28;20020;-79
2022/07/08 09:32:29;;;;;;;3.60;2.65;;;8.30;99.90;;;;;;5071553;28;20033;-81
2022/07/08 09:34:56;;;;;;;6.30;3.92;;;8.20;99.90;;;;;;5068381;28;20032;-82
2022/07/08 09:37:24;;;;;;;4.22;3.00;;;8.20;99.90;;;;;;5069386;28;20100;-80
2022/07/08 09:39:52;;;;;;;2.40;2.08;;;8.20;99.90;;;;;;5070160;28;20076;-80
2022/07/08 09:42:19;;;;;;;6.13;4.53;;;8.20;99.90;;;;;;5073506;28;20048;-79
2022/07/08 09:44:56;;;;;;;3.88;3.47;;;8.30;99.90;;;;;;5072064;28;20020;-81
2022/07/08 09:47:24;;;;;;;4.40;2.00;;;8.30;99.90;;;;;;5073196;28;20044;-80
2022/07/08 09:49:52;;;;;;;4.15;3.58;;;8.30;99.90;;;;;;5069145;28;20033;-81
2022/07/08 09:52:23;;;;;;;5.18;4.18;;;8.30;99.90;;;;;;5070323;28;20417;-81
2022/07/08 09:55:02;;;;;;;5.43;4.20;;;8.30;99.90;;;;;;5070439;28;20090;-78
2022/07/08 09:57:31;;;;;;;2.67;1.83;;;8.20;99.90;;;;;;5070560;28;20375;-82
2022/07/08 09:59:59;;;;;;;1.58;1.30;;;8.20;99.90;;;;;;5069820;28;20047;-74
2022/07/08 10:02:29;;;;;;;1.95;1.20;;;8.20;99.90;;;;;;5065751;28;20037;-82
2022/07/08 10:04:57;;;;;;;1.67;1.00;;;8.20;99.90;;;;;;5063406;28;20391;-78
2022/07/08 10:07:24;;;;;;;1.23;0.80;;;8.10;99.90;;;;;;5060979;28;20040;-81
2022/07/08 10:09:52;;;;;;;1.20;0.98;;;8.20;99.90;;;;;;5061641;28;20028;-82
2022/07/08 10:12:20;;;;;;;1.48;0.82;;;8.10;99.90;;;;;;5062026;28;20471;-82
2022/07/08 10:14:50;;;;;;;1.13;0.93;;;8.10;99.90;;;;;;5062442;28;20081;-81
2022/07/08 10:17:19;;;;;;;2.28;1.13;;;8.00;99.90;;;;;;5062873;28;20299;-80
2022/07/08 10:19:48;;;;;;;1.27;0.85;;;8.00;99.90;;;;;;5061649;28;20025;-82
2022/07/08 10:22:17;;;;;;;2.00;0.90;;;8.00;99.90;;;;;;5061926;28;20013;-70
2022/07/08 10:24:47;;;;;;;1.27;1.00;;;8.00;99.90;;;;;;5061831;28;20383;-76
2022/07/08 10:27:15;;;;;;;2.08;1.08;;;8.00;99.90;;;;;;5071031;28;20467;-77
2022/07/08 10:29:43;;;;;;;1.83;0.90;;;7.90;99.90;;;;;;5069012;28;20025;-81
2022/07/08 10:32:46;;;;;;;0.80;0.70;;;7.90;99.90;;;;;;5069617;28;20497;-82
2022/07/08 10:35:19;;;;;;;2.25;0.93;;;7.90;99.90;;;;;;5021199;28;20037;-83
2022/07/08 10:37:48;;;;;;;1.85;1.13;;;7.90;99.90;;;;;;5063886;28;20089;-82
2022/07/08 10:40:50;;;;;;;1.42;0.82;;;7.90;99.90;;;;;;5067814;28;20016;-82
2022/07/08 10:43:22;;;;;;;1.73;0.80;;;7.90;99.90;;;;;;5060943;28;20029;-74
2022/07/08 10:46:02;;;;;;;4.43;1.02;;;7.90;99.90;;;;;;5056667;28;20020;-82
2022/07/08 10:48:45;;;;;;;1.98;0.80;;;7.90;99.90;;;;;;5064814;28;20096;-82
2022/07/08 10:51:25;;;;;;;1.20;1.00;;;7.90;99.90;;;;;;5065972;28;20074;-82
2022/07/08 10:53:55;;;;;;;2.70;1.48;;;8.00;99.90;;;;;;5063786;28;20040;-79
2022/07/08 10:56:49;;;;;;;3.95;1.25;;;7.90;99.90;;;;;;5065429;28;20444;-80
2022/07/08 10:59:29;;;;;;;1.73;1.20;;;8.00;99.90;;;;;;5066636;28;20048;-77
2022/07/08 11:02:16;;;;;;;1.85;1.33;;;7.90;99.90;;;;;;5063486;28;20048;-80
2022/07/08 11:04:53;;;;;;;2.78;1.40;;;7.90;99.90;;;;;;5065488;28;20442;-70
2022/07/08 11:07:26;;;;;;;1.67;1.02;;;7.90;99.90;;;;;;5064122;28;20052;-81
2022/07/08 11:10:02;;;;;;;1.23;0.90;;;7.90;99.90;;;;;;5065510;28;20092;-81
2022/07/08 11:12:35;;;;;;;2.50;1.20;;;8.00;99.90;;;;;;5065878;28;20020;-81
2022/07/08 11:15:17;;;;;;;2.38;1.40;;;8.00;99.90;;;;;;5066491;28;20474;-76
2022/07/08 11:17:49;;;;;;;4.70;1.00;;;8.00;99.90;;;;;;5066278;28;20024;-80
2022/07/08 11:20:18;;;;;;;2.78;1.40;;;8.10;99.90;;;;;;5069844;28;20058;-79
2022/07/08 11:22:47;;;;;;;2.15;1.40;;;8.10;99.90;;;;;;5068704;28;20025;-81
2022/07/08 11:25:16;;;;;;;2.80;1.50;;;8.10;99.90;;;;;;5049075;28;20502;-82
2022/07/08 11:27:44;;;;;;;1.40;1.08;;;8.10;99.90;;;;;;5061516;28;20015;-81
2022/07/08 11:30:13;;;;;;;2.17;1.27;;;8.10;99.90;;;;;;5062152;28;20025;-81
2022/07/08 11:32:42;;;;;;;3.35;1.60;;;8.10;99.90;;;;;;5061819;28;20013;-81
2022/07/08 11:35:10;;;;;;;2.40;2.03;;;8.10;99.90;;;;;;5060708;28;20025;-81
2022/07/08 11:37:44;;;;;;;2.80;1.92;;;8.10;99.90;;;;;;5062626;28;20029;-80
2022/07/08 11:40:12;;;;;;;2.42;1.80;;;8.10;99.90;;;;;;5062834;28;20025;-69
2022/07/08 11:42:41;;;;;;;1.50;1.30;;;8.00;99.90;;;;;;5062048;28;20028;-76
2022/07/08 11:45:10;;;;;;;1.48;1.05;;;8.00;99.90;;;;;;5062444;28;20025;-79
2022/07/08 11:47:39;;;;;;;1.67;1.15;;;8.00;99.90;;;;;;5044333;28;20388;-81
2022/07/08 11:50:10;;;;;;;6.65;2.50;;;8.00;99.90;;;;;;5061196;28;20024;-80
2022/07/08 11:52:37;;;;;;;2.42;2.15;;;8.00;99.90;;;;;;5061373;28;20031;-81
2022/07/08 11:55:08;;;;;;;2.30;1.73;;;8.00;99.90;;;;;;5061327;28;20029;-82
2022/07/08 11:57:40;;;;;;;6.47;2.90;;;8.00;99.90;;;;;;5062696;28;20021;-76
2022/07/08 12:00:08;;;;;;;2.28;1.92;;;8.00;99.90;;;;;;5061736;28;20036;-75
2022/07/08 12:02:36;;;;;;;1.67;1.30;;;8.10;99.90;;;;;;5062072;28;20472;-81
2022/07/08 12:05:09;;;;;;;4.75;2.40;;;8.00;99.90;;;;;;5061266;28;20012;-78
2022/07/08 12:07:38;;;;;;;6.75;1.60;;;8.00;99.90;;;;;;5061523;28;21845;-81
2022/07/08 12:10:06;;;;;;;4.53;1.52;;;8.00;99.90;;;;;;5042094;28;20017;-81
2022/07/08 12:12:35;;;;;;;4.22;1.30;;;8.00;99.90;;;;;;5061247;28;20017;-81
2022/07/08 12:15:15;;;;;;;2.35;1.92;;;8.00;99.90;;;;;;5061144;28;20024;-82
2022/07/08 12:17:43;;;;;;;1.85;1.23;;;8.00;99.90;;;;;;5062490;28;20047;-81
2022/07/08 12:20:13;;;;;;;1.65;0.95;;;8.00;99.90;;;;;;5065539;28;20530;-82
2022/07/08 12:22:48;;;;;;;2.35;1.15;;;8.10;99.90;;;;;;5066092;28;20020;-80
2022/07/08 12:25:19;;;;;;;4.22;1.30;;;8.10;99.90;;;;;;5066506;28;20025;-80
2022/07/08 12:27:58;;;;;;;2.53;1.10;;;8.10;99.90;;;;;;5065437;28;20052;-80
2022/07/08 12:30:30;;;;;;;1.88;0.80;;;8.10;99.90;;;;;;5064944;28;20486;-79
2022/07/08 12:33:03;;;;;;;1.02;0.70;;;8.10;99.90;;;;;;5064419;28;20021;-78
2022/07/08 12:35:35;;;;;;;1.33;0.75;;;8.10;99.90;;;;;;5062144;28;20064;-77
2022/07/08 12:38:10;;;;;;;1.73;0.90;;;8.10;99.90;;;;;;5061035;28;20052;-80
2022/07/08 12:40:43;;;;;;;0.95;0.68;;;8.10;99.90;;;;;;5062205;28;20036;-80
2022/07/08 12:43:14;;;;;;;1.77;1.00;;;8.10;99.90;;;;;;5062623;28;20056;-80
2022/07/08 12:45:42;;;;;;;1.70;1.05;;;8.10;99.90;;;;;;5061195;28;20021;-79
2022/07/08 12:48:09;;;;;;;3.30;1.05;;;8.10;99.90;;;;;;5062058;28;20013;-80
2022/07/08 12:50:37;;;;;;;2.05;1.15;;;8.00;99.90;;;;;;5060792;28;20035;-80
2022/07/08 12:53:05;;;;;;;3.40;0.73;;;8.00;99.90;;;;;;5060086;28;20071;-74
2022/07/08 12:55:32;;;;;;;2.00;1.10;;;8.00;99.90;;;;;;5062183;28;20028;-80
2022/07/08 12:58:00;;;;;;;2.95;1.10;;;8.00;99.90;;;;;;5061847;28;20016;-75
2022/07/08 13:00:27;;;;;;;1.38;1.00;;;7.90;99.90;;;;;;5066841;28;20051;-78
2022/07/08 13:02:54;;;;;;;1.55;0.80;;;7.90;99.90;;;;;;5071919;28;20065;-78
2022/07/08 13:05:22;;;;;;;2.58;0.88;;;7.90;99.90;;;;;;5072659;28;20158;-79
2022/07/08 13:07:49;;;;;;;11.05;0.90;;;7.90;99.90;;;;;;5071694;28;20078;-77